sensor_id;sensor_type;location;lat;lon;timestamp;pressure;altitude;pressure_sealevel;temperature;humidity
46690;BME280;32423;45.398;10.874;2023-04-05T00:02:29;101002.13;;;10.13;36.08
46690;BME280;32423;45.398;10.874;2023-04-05T00:05:15;100995.59;;;10.14;36.26
46690;BME280;32423;45.398;10.874;2023-04-05T00:08:17;100997.31;;;9.97;36.22
46690;BME280;32423;45.398;10.874;2023-04-05T00:11:11;101002.38;;;9.90;37.00
46690;BME280;32423;45.398;10.874;2023-04-05T00:14:04;100999.16;;;9.74;37.09
46690;BME280;32423;45.398;10.874;2023-04-05T00:16:53;101002.56;;;9.66;37.25
46690;BME280;32423;45.398;10.874;2023-04-05T00:19:45;101000.38;;;9.54;37.72
46690;BME280;32423;45.398;10.874;2023-04-05T00:22:39;101005.09;;;9.49;37.67
46690;BME280;32423;45.398;10.874;2023-04-05T00:25:32;101006.81;;;9.44;37.96
46690;BME280;32423;45.398;10.874;2023-04-05T00:28:24;101000.16;;;9.51;38.19
46690;BME280;32423;45.398;10.874;2023-04-05T00:31:16;101006.91;;;9.53;38.05
46690;BME280;32423;45.398;10.874;2023-04-05T00:34:08;101001.47;;;9.53;37.53
46690;BME280;32423;45.398;10.874;2023-04-05T00:37:04;101005.91;;;9.49;37.62
46690;BME280;32423;45.398;10.874;2023-04-05T00:39:53;100998.66;;;9.44;37.52
46690;BME280;32423;45.398;10.874;2023-04-05T00:42:45;101002.94;;;9.32;37.82
46690;BME280;32423;45.398;10.874;2023-04-05T00:45:37;100999.94;;;9.33;37.51
46690;BME280;32423;45.398;10.874;2023-04-05T00:48:29;101005.28;;;9.38;37.43
46690;BME280;32423;45.398;10.874;2023-04-05T00:51:21;101003.56;;;9.42;37.53
46690;BME280;32423;45.398;10.874;2023-04-05T00:54:11;101001.38;;;9.44;38.01
46690;BME280;32423;45.398;10.874;2023-04-05T00:57:03;100982.47;;;9.53;37.40
46690;BME280;32423;45.398;10.874;2023-04-05T00:59:55;100990.91;;;9.52;37.30
46690;BME280;32423;45.398;10.874;2023-04-05T01:02:54;100985.47;;;9.52;36.65
46690;BME280;32423;45.398;10.874;2023-04-05T01:05:48;100986.78;;;9.40;36.47
46690;BME280;32423;45.398;10.874;2023-04-05T01:08:44;100985.28;;;9.34;36.61
46690;BME280;32423;45.398;10.874;2023-04-05T01:11:39;100975.91;;;9.40;36.64
46690;BME280;32423;45.398;10.874;2023-04-05T01:14:38;100982.97;;;9.41;36.48
46690;BME280;32423;45.398;10.874;2023-04-05T01:17:30;100976.44;;;9.42;36.19
46690;BME280;32423;45.398;10.874;2023-04-05T01:20:24;100979.03;;;9.48;36.20
46690;BME280;32423;45.398;10.874;2023-04-05T01:23:16;100984.56;;;9.42;36.46
46690;BME280;32423;45.398;10.874;2023-04-05T01:26:21;100991.19;;;9.50;36.41
46690;BME280;32423;45.398;10.874;2023-04-05T01:30:02;100983.06;;;9.50;36.23
46690;BME280;32423;45.398;10.874;2023-04-05T01:35:30;100982.28;;;9.50;35.92
46690;BME280;32423;45.398;10.874;2023-04-05T01:38:23;100984.47;;;9.48;35.98
46690;BME280;32423;45.398;10.874;2023-04-05T01:41:16;100981.47;;;9.49;36.06
46690;BME280;32423;45.398;10.874;2023-04-05T01:44:08;100979.44;;;9.41;35.83
46690;BME280;32423;45.398;10.874;2023-04-05T01:47:00;100977.22;;;9.29;35.70
46690;BME280;32423;45.398;10.874;2023-04-05T01:49:52;100980.72;;;9.30;35.76
46690;BME280;32423;45.398;10.874;2023-04-05T01:52:44;100980.44;;;9.31;36.27
46690;BME280;32423;45.398;10.874;2023-04-05T01:55:36;100978.72;;;9.35;36.12
46690;BME280;32423;45.398;10.874;2023-04-05T01:58:28;100979.25;;;9.37;35.55
46690;BME280;32423;45.398;10.874;2023-04-05T02:01:21;100977.03;;;9.39;35.46
46690;BME280;32423;45.398;10.874;2023-04-05T02:04:13;100974.91;;;9.36;35.84
46690;BME280;32423;45.398;10.874;2023-04-05T02:07:05;100978.53;;;9.32;35.36
46690;BME280;32423;45.398;10.874;2023-04-05T02:09:57;100979.63;;;9.31;35.65
46690;BME280;32423;45.398;10.874;2023-04-05T02:12:49;100979.63;;;9.31;35.07
46690;BME280;32423;45.398;10.874;2023-04-05T02:15:41;100972.09;;;9.28;35.60
46690;BME280;32423;45.398;10.874;2023-04-05T02:18:38;100976.00;;;9.08;36.68
46690;BME280;32423;45.398;10.874;2023-04-05T02:21:30;100982.72;;;9.11;35.69
46690;BME280;32423;45.398;10.874;2023-04-05T02:24:22;100976.38;;;9.15;35.19
46690;BME280;32423;45.398;10.874;2023-04-05T02:27:14;100984.25;;;9.17;35.03
46690;BME280;32423;45.398;10.874;2023-04-05T02:30:06;100978.53;;;9.18;35.20
46690;BME280;32423;45.398;10.874;2023-04-05T02:32:56;100979.19;;;9.10;35.74
46690;BME280;32423;45.398;10.874;2023-04-05T02:35:48;100979.09;;;9.15;35.07
46690;BME280;32423;45.398;10.874;2023-04-05T02:38:40;100981.22;;;9.18;35.34
46690;BME280;32423;45.398;10.874;2023-04-05T02:41:29;100976.88;;;9.04;36.38
46690;BME280;32423;45.398;10.874;2023-04-05T02:44:21;100978.97;;;8.93;37.43
46690;BME280;32423;45.398;10.874;2023-04-05T02:47:14;100975.31;;;8.84;37.66
46690;BME280;32423;45.398;10.874;2023-04-05T02:50:10;100982.94;;;8.82;37.23
46690;BME280;32423;45.398;10.874;2023-04-05T02:53:04;100980.72;;;8.84;37.07
46690;BME280;32423;45.398;10.874;2023-04-05T02:55:56;100986.28;;;8.60;37.06
46690;BME280;32423;45.398;10.874;2023-04-05T02:58:47;100981.38;;;8.62;37.60
46690;BME280;32423;45.398;10.874;2023-04-05T03:01:43;100986.88;;;8.57;37.68
46690;BME280;32423;45.398;10.874;2023-04-05T03:04:37;100993.09;;;8.39;38.73
46690;BME280;32423;45.398;10.874;2023-04-05T03:07:30;100988.56;;;8.34;38.83
46690;BME280;32423;45.398;10.874;2023-04-05T03:10:22;100989.97;;;8.32;39.01
46690;BME280;32423;45.398;10.874;2023-04-05T03:13:17;100996.38;;;8.17;39.21
46690;BME280;32423;45.398;10.874;2023-04-05T03:16:09;100989.16;;;8.31;39.37
46690;BME280;32423;45.398;10.874;2023-04-05T03:19:01;100985.28;;;8.37;39.54
46690;BME280;32423;45.398;10.874;2023-04-05T03:21:54;100986.38;;;8.36;39.27
46690;BME280;32423;45.398;10.874;2023-04-05T03:24:51;100982.50;;;8.42;39.02
46690;BME280;32423;45.398;10.874;2023-04-05T03:27:43;100992.22;;;8.43;39.43
46690;BME280;32423;45.398;10.874;2023-04-05T03:30:33;100987.84;;;8.47;39.10
46690;BME280;32423;45.398;10.874;2023-04-05T03:33:35;100992.66;;;8.50;39.23
46690;BME280;32423;45.398;10.874;2023-04-05T03:36:27;100977.41;;;8.54;38.82
46690;BME280;32423;45.398;10.874;2023-04-05T03:39:20;100985.06;;;8.34;39.04
46690;BME280;32423;45.398;10.874;2023-04-05T03:42:12;100983.16;;;8.34;39.76
46690;BME280;32423;45.398;10.874;2023-04-05T03:45:01;100987.25;;;8.32;39.68
46690;BME280;32423;45.398;10.874;2023-04-05T03:47:55;100982.34;;;8.34;40.25
46690;BME280;32423;45.398;10.874;2023-04-05T03:50:47;100982.38;;;8.29;40.16
46690;BME280;32423;45.398;10.874;2023-04-05T03:53:40;100987.75;;;8.34;39.88
46690;BME280;32423;45.398;10.874;2023-04-05T03:56:30;100985.38;;;8.32;39.94
46690;BME280;32423;45.398;10.874;2023-04-05T03:59:29;100985.91;;;8.29;39.88
46690;BME280;32423;45.398;10.874;2023-04-05T04:02:21;100979.41;;;8.30;40.31
46690;BME280;32423;45.398;10.874;2023-04-05T04:05:14;100979.47;;;8.25;40.27
46690;BME280;32423;45.398;10.874;2023-04-05T04:08:06;100981.78;;;8.37;39.92
46690;BME280;32423;45.398;10.874;2023-04-05T04:10:58;100976.97;;;8.29;39.61
46690;BME280;32423;45.398;10.874;2023-04-05T04:13:52;100977.78;;;8.29;39.18
46690;BME280;32423;45.398;10.874;2023-04-05T04:16:47;100982.38;;;8.29;39.51
46690;BME280;32423;45.398;10.874;2023-04-05T04:20:03;100975.06;;;8.29;39.92
46690;BME280;32423;45.398;10.874;2023-04-05T04:23:12;100976.47;;;8.27;40.00
46690;BME280;32423;45.398;10.874;2023-04-05T04:26:22;100977.56;;;8.26;39.95
46690;BME280;32423;45.398;10.874;2023-04-05T04:29:30;100974.00;;;8.30;40.00
46690;BME280;32423;45.398;10.874;2023-04-05T04:32:45;100975.63;;;8.31;40.52
46690;BME280;32423;45.398;10.874;2023-04-05T04:36:04;100978.88;;;8.28;40.24
46690;BME280;32423;45.398;10.874;2023-04-05T04:39:14;100979.13;;;8.32;40.67
46690;BME280;32423;45.398;10.874;2023-04-05T04:42:29;100980.00;;;8.27;41.33
46690;BME280;32423;45.398;10.874;2023-04-05T04:45:33;100982.59;;;8.37;41.11
46690;BME280;32423;45.398;10.874;2023-04-05T04:48:39;100971.88;;;8.27;41.66
46690;BME280;32423;45.398;10.874;2023-04-05T04:51:33;100979.88;;;8.37;41.18
46690;BME280;32423;45.398;10.874;2023-04-05T04:54:25;100983.25;;;8.24;41.30
46690;BME280;32423;45.398;10.874;2023-04-05T04:57:17;100981.03;;;8.31;40.62
46690;BME280;32423;45.398;10.874;2023-04-05T05:00:09;100988.81;;;8.38;40.54
46690;BME280;32423;45.398;10.874;2023-04-05T05:03:07;100980.38;;;8.39;40.39
46690;BME280;32423;45.398;10.874;2023-04-05T05:05:59;100985.72;;;8.44;40.36
46690;BME280;32423;45.398;10.874;2023-04-05T05:08:51;100990.63;;;8.42;40.10
46690;BME280;32423;45.398;10.874;2023-04-05T05:11:45;100990.31;;;8.44;39.91
46690;BME280;32423;45.398;10.874;2023-04-05T05:14:37;100988.13;;;8.46;40.42
46690;BME280;32423;45.398;10.874;2023-04-05T05:17:29;100992.66;;;8.50;40.50
46690;BME280;32423;45.398;10.874;2023-04-05T05:20:23;100993.56;;;8.46;40.87
46690;BME280;32423;45.398;10.874;2023-04-05T05:23:15;100997.50;;;8.53;43.63
46690;BME280;32423;45.398;10.874;2023-04-05T05:26:07;101000.19;;;8.53;40.85
46690;BME280;32423;45.398;10.874;2023-04-05T05:28:59;100995.59;;;8.54;40.75
46690;BME280;32423;45.398;10.874;2023-04-05T05:31:51;100993.31;;;8.61;40.08
46690;BME280;32423;45.398;10.874;2023-04-05T05:34:46;100992.34;;;8.71;40.58
46690;BME280;32423;45.398;10.874;2023-04-05T05:37:38;100998.13;;;8.83;39.13
46690;BME280;32423;45.398;10.874;2023-04-05T05:40:25;101000.75;;;8.88;38.97
46690;BME280;32423;45.398;10.874;2023-04-05T05:43:17;101002.84;;;8.91;38.02
46690;BME280;32423;45.398;10.874;2023-04-05T05:46:09;100999.06;;;8.92;36.78
46690;BME280;32423;45.398;10.874;2023-04-05T05:49:01;101006.91;;;8.93;36.76
46690;BME280;32423;45.398;10.874;2023-04-05T05:51:53;101002.09;;;9.04;36.29
46690;BME280;32423;45.398;10.874;2023-04-05T05:54:45;101003.69;;;9.05;37.08
46690;BME280;32423;45.398;10.874;2023-04-05T05:57:37;101005.59;;;9.05;36.16
46690;BME280;32423;45.398;10.874;2023-04-05T06:00:29;101006.84;;;9.12;35.81
46690;BME280;32423;45.398;10.874;2023-04-05T06:03:21;101009.13;;;9.05;35.97
46690;BME280;32423;45.398;10.874;2023-04-05T06:06:13;101013.19;;;9.21;37.43
46690;BME280;32423;45.398;10.874;2023-04-05T06:09:02;101006.75;;;9.17;37.41
46690;BME280;32423;45.398;10.874;2023-04-05T06:11:54;101017.50;;;9.22;36.25
46690;BME280;32423;45.398;10.874;2023-04-05T06:14:46;101008.75;;;9.25;36.55
46690;BME280;32423;45.398;10.874;2023-04-05T06:17:38;101013.19;;;9.21;35.59
46690;BME280;32423;45.398;10.874;2023-04-05T06:20:30;101006.56;;;9.27;36.18
46690;BME280;32423;45.398;10.874;2023-04-05T06:23:20;101007.97;;;9.25;36.32
46690;BME280;32423;45.398;10.874;2023-04-05T06:26:19;101005.97;;;9.30;35.78
46690;BME280;32423;45.398;10.874;2023-04-05T06:29:11;101009.72;;;9.34;35.07
46690;BME280;32423;45.398;10.874;2023-04-05T06:32:00;101012.00;;;9.41;34.75
46690;BME280;32423;45.398;10.874;2023-04-05T06:34:52;101015.53;;;9.41;34.81
46690;BME280;32423;45.398;10.874;2023-04-05T06:37:44;101018.25;;;9.96;42.90
46690;BME280;32423;45.398;10.874;2023-04-05T06:40:36;101020.16;;;10.59;38.13
46690;BME280;32423;45.398;10.874;2023-04-05T06:43:28;101015.31;;;11.23;36.16
46690;BME280;32423;45.398;10.874;2023-04-05T06:46:17;101020.72;;;11.45;39.60
46690;BME280;32423;45.398;10.874;2023-04-05T06:49:07;101019.03;;;13.09;38.53
46690;BME280;32423;45.398;10.874;2023-04-05T06:51:59;101018.16;;;13.43;35.85
46690;BME280;32423;45.398;10.874;2023-04-05T06:54:51;101018.75;;;12.93;34.32
46690;BME280;32423;45.398;10.874;2023-04-05T06:57:43;101014.09;;;12.94;33.63
46690;BME280;32423;45.398;10.874;2023-04-05T07:00:35;101017.75;;;13.06;32.76
46690;BME280;32423;45.398;10.874;2023-04-05T07:03:27;101013.78;;;13.59;32.34
46690;BME280;32423;45.398;10.874;2023-04-05T07:06:19;101014.59;;;13.59;31.13
46690;BME280;32423;45.398;10.874;2023-04-05T07:09:11;101016.06;;;13.86;30.79
46690;BME280;32423;45.398;10.874;2023-04-05T07:12:01;101018.56;;;13.70;28.83
46690;BME280;32423;45.398;10.874;2023-04-05T07:14:51;101014.03;;;13.75;30.61
46690;BME280;32423;45.398;10.874;2023-04-05T07:17:43;101018.47;;;13.50;30.57
46690;BME280;32423;45.398;10.874;2023-04-05T07:20:35;101016.00;;;13.65;29.98
46690;BME280;32423;45.398;10.874;2023-04-05T07:23:25;101020.03;;;13.59;31.00
46690;BME280;32423;45.398;10.874;2023-04-05T07:26:20;101011.09;;;13.50;29.73
46690;BME280;32423;45.398;10.874;2023-04-05T07:29:13;101016.50;;;13.59;30.22
46690;BME280;32423;45.398;10.874;2023-04-05T07:32:02;101023.84;;;13.67;29.74
46690;BME280;32423;45.398;10.874;2023-04-05T07:34:54;101033.72;;;13.59;29.96
46690;BME280;32423;45.398;10.874;2023-04-05T07:37:43;101032.28;;;13.53;29.79
46690;BME280;32423;45.398;10.874;2023-04-05T07:40:35;101036.13;;;13.52;30.13
46690;BME280;32423;45.398;10.874;2023-04-05T07:43:27;101037.25;;;13.51;29.62
46690;BME280;32423;45.398;10.874;2023-04-05T07:46:19;101037.03;;;13.10;30.34
46690;BME280;32423;45.398;10.874;2023-04-05T07:49:11;101040.91;;;12.57;30.30
46690;BME280;32423;45.398;10.874;2023-04-05T07:52:04;101045.78;;;13.88;29.06
46690;BME280;32423;45.398;10.874;2023-04-05T07:54:56;101045.88;;;12.38;29.45
46690;BME280;32423;45.398;10.874;2023-04-05T07:57:47;101044.22;;;12.03;30.30
46690;BME280;32423;45.398;10.874;2023-04-05T08:00:39;101050.22;;;12.39;31.83
46690;BME280;32423;45.398;10.874;2023-04-05T08:03:31;101050.53;;;12.29;31.80
46690;BME280;32423;45.398;10.874;2023-04-05T08:06:23;101048.28;;;12.57;30.19
46690;BME280;32423;45.398;10.874;2023-04-05T08:09:15;101049.38;;;12.13;30.39
46690;BME280;32423;45.398;10.874;2023-04-05T08:12:07;101044.50;;;12.01;30.97
46690;BME280;32423;45.398;10.874;2023-04-05T08:14:59;101051.47;;;11.76;31.81
46690;BME280;32423;45.398;10.874;2023-04-05T08:17:54;101053.44;;;11.84;31.38
46690;BME280;32423;45.398;10.874;2023-04-05T08:20:51;101052.41;;;11.72;31.36
46690;BME280;32423;45.398;10.874;2023-04-05T08:23:46;101050.56;;;11.89;32.44
46690;BME280;32423;45.398;10.874;2023-04-05T08:26:41;101058.22;;;12.27;30.55
46690;BME280;32423;45.398;10.874;2023-04-05T08:29:35;101057.75;;;12.76;31.02
46690;BME280;32423;45.398;10.874;2023-04-05T08:32:29;101052.44;;;13.06;30.03
46690;BME280;32423;45.398;10.874;2023-04-05T08:35:23;101059.38;;;12.86;29.50
46690;BME280;32423;45.398;10.874;2023-04-05T08:38:15;101055.22;;;12.63;29.62
46690;BME280;32423;45.398;10.874;2023-04-05T08:41:22;101055.84;;;12.51;30.43
46690;BME280;32423;45.398;10.874;2023-04-05T08:44:18;101053.41;;;12.41;30.47
46690;BME280;32423;45.398;10.874;2023-04-05T08:47:13;101045.88;;;12.47;30.38
46690;BME280;32423;45.398;10.874;2023-04-05T08:50:11;101058.56;;;12.51;31.20
46690;BME280;32423;45.398;10.874;2023-04-05T08:53:06;101051.97;;;12.52;30.23
46690;BME280;32423;45.398;10.874;2023-04-05T08:56:01;101057.28;;;12.57;30.54
46690;BME280;32423;45.398;10.874;2023-04-05T08:59:09;101058.88;;;12.75;29.68
46690;BME280;32423;45.398;10.874;2023-04-05T09:02:05;101053.44;;;12.75;29.77
46690;BME280;32423;45.398;10.874;2023-04-05T09:04:57;101054.41;;;12.79;30.04
46690;BME280;32423;45.398;10.874;2023-04-05T09:07:51;101056.66;;;12.95;29.95
46690;BME280;32423;45.398;10.874;2023-04-05T09:10:45;101054.88;;;12.81;29.91
46690;BME280;32423;45.398;10.874;2023-04-05T09:13:42;101048.94;;;12.71;30.36
46690;BME280;32423;45.398;10.874;2023-04-05T09:16:40;101058.25;;;12.78;30.17
46690;BME280;32423;45.398;10.874;2023-04-05T09:19:35;101059.06;;;13.05;29.41
46690;BME280;32423;45.398;10.874;2023-04-05T09:22:30;101046.34;;;13.09;29.53
46690;BME280;32423;45.398;10.874;2023-04-05T09:25:39;101047.50;;;12.99;29.50
46690;BME280;32423;45.398;10.874;2023-04-05T09:28:41;101045.22;;;13.01;29.08
46690;BME280;32423;45.398;10.874;2023-04-05T09:31:37;101051.69;;;13.14;29.02
46690;BME280;32423;45.398;10.874;2023-04-05T09:34:32;101054.88;;;12.99;29.71
46690;BME280;32423;45.398;10.874;2023-04-05T09:37:27;101044.91;;;13.03;29.13
46690;BME280;32423;45.398;10.874;2023-04-05T09:40:22;101044.09;;;13.11;29.41
46690;BME280;32423;45.398;10.874;2023-04-05T09:43:35;101046.53;;;13.12;29.75
46690;BME280;32423;45.398;10.874;2023-04-05T09:46:33;101054.69;;;13.21;29.34
46690;BME280;32423;45.398;10.874;2023-04-05T09:49:37;101042.31;;;13.41;28.64
46690;BME280;32423;45.398;10.874;2023-04-05T09:52:33;101041.00;;;13.38;28.50
46690;BME280;32423;45.398;10.874;2023-04-05T09:55:29;101035.06;;;13.45;28.54
46690;BME280;32423;45.398;10.874;2023-04-05T09:58:24;101037.97;;;13.31;28.79
46690;BME280;32423;45.398;10.874;2023-04-05T10:01:25;101035.91;;;13.28;28.92
46690;BME280;32423;45.398;10.874;2023-04-05T10:04:15;101031.06;;;13.34;28.55
46690;BME280;32423;45.398;10.874;2023-04-05T10:07:14;101031.91;;;13.00;28.39
46690;BME280;32423;45.398;10.874;2023-04-05T10:10:12;101032.69;;;13.09;28.83
46690;BME280;32423;45.398;10.874;2023-04-05T10:13:07;101020.34;;;13.03;29.06
46690;BME280;32423;45.398;10.874;2023-04-05T10:16:01;101017.28;;;13.21;29.35
46690;BME280;32423;45.398;10.874;2023-04-05T10:18:59;101018.97;;;13.43;28.56
46690;BME280;32423;45.398;10.874;2023-04-05T10:21:54;101021.03;;;13.46;29.03
46690;BME280;32423;45.398;10.874;2023-04-05T10:24:55;101016.38;;;13.55;28.73
46690;BME280;32423;45.398;10.874;2023-04-05T10:27:48;101017.31;;;13.59;28.30
46690;BME280;32423;45.398;10.874;2023-04-05T10:30:55;101017.44;;;13.63;28.27
46690;BME280;32423;45.398;10.874;2023-04-05T10:34:19;101015.41;;;13.89;27.64
46690;BME280;32423;45.398;10.874;2023-04-05T10:37:13;101015.97;;;14.03;27.92
46690;BME280;32423;45.398;10.874;2023-04-05T10:40:14;101011.25;;;13.83;27.70
46690;BME280;32423;45.398;10.874;2023-04-05T10:43:08;101006.59;;;13.84;27.19
46690;BME280;32423;45.398;10.874;2023-04-05T10:46:09;101004.28;;;13.65;27.77
46690;BME280;32423;45.398;10.874;2023-04-05T10:49:21;101005.06;;;13.65;28.36
46690;BME280;32423;45.398;10.874;2023-04-05T10:52:19;101007.75;;;13.74;28.75
46690;BME280;32423;45.398;10.874;2023-04-05T10:55:14;100988.69;;;13.65;28.52
46690;BME280;32423;45.398;10.874;2023-04-05T10:58:10;100995.16;;;13.52;28.48
46690;BME280;32423;45.398;10.874;2023-04-05T11:01:06;101000.25;;;13.62;28.12
46690;BME280;32423;45.398;10.874;2023-04-05T11:04:12;100996.97;;;13.78;28.29
46690;BME280;32423;45.398;10.874;2023-04-05T11:07:15;100996.41;;;13.63;28.28
46690;BME280;32423;45.398;10.874;2023-04-05T11:10:21;100984.09;;;13.78;28.38
46690;BME280;32423;45.398;10.874;2023-04-05T11:13:22;100983.06;;;14.12;28.19
46690;BME280;32423;45.398;10.874;2023-04-05T11:16:39;100969.16;;;14.26;28.63
46690;BME280;32423;45.398;10.874;2023-04-05T11:20:05;100968.16;;;14.30;28.42
46690;BME280;32423;45.398;10.874;2023-04-05T11:22:58;100975.19;;;14.40;28.43
46690;BME280;32423;45.398;10.874;2023-04-05T11:25:54;100979.72;;;14.57;27.93
46690;BME280;32423;45.398;10.874;2023-04-05T11:28:48;100973.31;;;14.52;27.27
46690;BME280;32423;45.398;10.874;2023-04-05T11:32:07;100976.44;;;14.22;28.56
46690;BME280;32423;45.398;10.874;2023-04-05T11:35:06;100970.22;;;14.12;27.90
46690;BME280;32423;45.398;10.874;2023-04-05T11:38:05;100957.00;;;14.14;27.70
46690;BME280;32423;45.398;10.874;2023-04-05T11:41:18;100962.50;;;14.35;28.11
46690;BME280;32423;45.398;10.874;2023-04-05T11:44:15;100966.47;;;14.46;27.80
46690;BME280;32423;45.398;10.874;2023-04-05T11:47:07;100959.25;;;14.75;27.65
46690;BME280;32423;45.398;10.874;2023-04-05T11:50:02;100961.13;;;14.83;26.90
46690;BME280;32423;45.398;10.874;2023-04-05T11:53:17;100949.00;;;14.72;27.19
46690;BME280;32423;45.398;10.874;2023-04-05T11:56:15;100951.69;;;14.60;27.44
46690;BME280;32423;45.398;10.874;2023-04-05T11:59:12;100944.41;;;14.43;27.57
46690;BME280;32423;45.398;10.874;2023-04-05T12:02:05;100943.16;;;14.40;27.27
46690;BME280;32423;45.398;10.874;2023-04-05T12:05:01;100934.59;;;14.63;27.57
46690;BME280;32423;45.398;10.874;2023-04-05T12:07:53;100938.75;;;14.81;26.81
46690;BME280;32423;45.398;10.874;2023-04-05T12:10:57;100934.53;;;14.83;26.77
46690;BME280;32423;45.398;10.874;2023-04-05T12:13:54;100931.88;;;15.08;26.48
46690;BME280;32423;45.398;10.874;2023-04-05T12:16:50;100930.59;;;15.05;26.84
46690;BME280;32423;45.398;10.874;2023-04-05T12:19:42;100938.06;;;14.84;27.32
46690;BME280;32423;45.398;10.874;2023-04-05T12:22:42;100922.63;;;14.67;27.28
46690;BME280;32423;45.398;10.874;2023-04-05T12:25:42;100927.16;;;14.63;27.15
46690;BME280;32423;45.398;10.874;2023-04-05T12:28:56;100928.69;;;14.73;26.96
46690;BME280;32423;45.398;10.874;2023-04-05T12:31:51;100929.84;;;14.84;27.13
46690;BME280;32423;45.398;10.874;2023-04-05T12:34:48;100926.72;;;15.06;26.47
46690;BME280;32423;45.398;10.874;2023-04-05T12:37:43;100906.63;;;15.14;26.59
46690;BME280;32423;45.398;10.874;2023-04-05T12:40:39;100908.69;;;15.17;26.75
46690;BME280;32423;45.398;10.874;2023-04-05T12:43:43;100915.34;;;15.28;26.31
46690;BME280;32423;45.398;10.874;2023-04-05T12:46:50;100904.72;;;15.27;26.86
46690;BME280;32423;45.398;10.874;2023-04-05T12:49:50;100893.97;;;15.34;26.22
46690;BME280;32423;45.398;10.874;2023-04-05T12:53:13;100902.53;;;15.45;26.00
46690;BME280;32423;45.398;10.874;2023-04-05T12:56:08;100895.66;;;15.14;26.20
46690;BME280;32423;45.398;10.874;2023-04-05T12:59:02;100894.75;;;15.34;26.22
46690;BME280;32423;45.398;10.874;2023-04-05T13:01:58;100896.38;;;15.35;25.95
46690;BME280;32423;45.398;10.874;2023-04-05T13:04:50;100888.72;;;15.29;26.41
46690;BME280;32423;45.398;10.874;2023-04-05T13:07:44;100887.91;;;15.40;26.51
46690;BME280;32423;45.398;10.874;2023-04-05T13:10:37;100880.97;;;15.31;26.07
46690;BME280;32423;45.398;10.874;2023-04-05T13:13:31;100882.34;;;15.37;25.88
46690;BME280;32423;45.398;10.874;2023-04-05T13:16:25;100874.25;;;15.53;26.09
46690;BME280;32423;45.398;10.874;2023-04-05T13:19:20;100879.50;;;15.58;25.62
46690;BME280;32423;45.398;10.874;2023-04-05T13:22:15;100874.13;;;15.61;25.57
46690;BME280;32423;45.398;10.874;2023-04-05T13:25:10;100866.00;;;15.65;25.69
46690;BME280;32423;45.398;10.874;2023-04-05T13:28:03;100867.81;;;15.73;25.57
46690;BME280;32423;45.398;10.874;2023-04-05T13:30:57;100866.47;;;15.55;25.46
46690;BME280;32423;45.398;10.874;2023-04-05T13:33:52;100862.09;;;15.66;25.74
46690;BME280;32423;45.398;10.874;2023-04-05T13:36:46;100872.81;;;15.83;25.44
46690;BME280;32423;45.398;10.874;2023-04-05T13:39:41;100869.84;;;15.88;25.08
46690;BME280;32423;45.398;10.874;2023-04-05T13:42:36;100872.84;;;15.71;25.41
46690;BME280;32423;45.398;10.874;2023-04-05T13:45:30;100862.78;;;15.75;25.46
46690;BME280;32423;45.398;10.874;2023-04-05T13:48:25;100852.97;;;15.62;25.23
46690;BME280;32423;45.398;10.874;2023-04-05T13:51:21;100862.28;;;15.85;25.41
46690;BME280;32423;45.398;10.874;2023-04-05T13:54:15;100854.25;;;15.64;25.78
46690;BME280;32423;45.398;10.874;2023-04-05T13:57:10;100859.84;;;15.68;25.19
46690;BME280;32423;45.398;10.874;2023-04-05T14:00:04;100856.56;;;15.90;24.90
46690;BME280;32423;45.398;10.874;2023-04-05T14:03:05;100842.75;;;15.87;24.99
46690;BME280;32423;45.398;10.874;2023-04-05T14:05:59;100845.09;;;16.00;25.33
46690;BME280;32423;45.398;10.874;2023-04-05T14:08:54;100845.06;;;16.12;25.21
46690;BME280;32423;45.398;10.874;2023-04-05T14:11:46;100836.59;;;16.17;24.99
46690;BME280;32423;45.398;10.874;2023-04-05T14:14:41;100839.75;;;16.04;24.76
46690;BME280;32423;45.398;10.874;2023-04-05T14:17:31;100842.22;;;16.09;24.51
46690;BME280;32423;45.398;10.874;2023-04-05T14:20:24;100836.53;;;16.02;24.32
46690;BME280;32423;45.398;10.874;2023-04-05T14:23:19;100834.00;;;16.09;24.00
46690;BME280;32423;45.398;10.874;2023-04-05T14:26:09;100839.34;;;15.90;24.48
46690;BME280;32423;45.398;10.874;2023-04-05T14:29:02;100830.06;;;15.94;24.39
46690;BME280;32423;45.398;10.874;2023-04-05T14:31:53;100828.38;;;15.77;24.38
46690;BME280;32423;45.398;10.874;2023-04-05T14:34:48;100831.22;;;15.81;24.14
46690;BME280;32423;45.398;10.874;2023-04-05T14:37:42;100824.13;;;15.80;24.43
46690;BME280;32423;45.398;10.874;2023-04-05T14:40:37;100823.56;;;15.87;24.78
46690;BME280;32423;45.398;10.874;2023-04-05T14:43:31;100829.53;;;15.76;24.89
46690;BME280;32423;45.398;10.874;2023-04-05T14:46:26;100821.34;;;15.64;24.86
46690;BME280;32423;45.398;10.874;2023-04-05T14:49:16;100819.28;;;15.49;24.53
46690;BME280;32423;45.398;10.874;2023-04-05T14:52:08;100828.31;;;15.62;25.05
46690;BME280;32423;45.398;10.874;2023-04-05T14:55:01;100819.38;;;15.65;25.00
46690;BME280;32423;45.398;10.874;2023-04-05T14:57:53;100820.56;;;15.64;24.82
46690;BME280;32423;45.398;10.874;2023-04-05T15:00:49;100821.13;;;15.69;24.80
46690;BME280;32423;45.398;10.874;2023-04-05T15:03:44;100809.81;;;15.47;24.95
46690;BME280;32423;45.398;10.874;2023-04-05T15:06:39;100816.56;;;15.37;24.99
46690;BME280;32423;45.398;10.874;2023-04-05T15:09:33;100818.97;;;15.38;25.29
46690;BME280;32423;45.398;10.874;2023-04-05T15:12:20;100805.38;;;15.42;25.06
46690;BME280;32423;45.398;10.874;2023-04-05T15:15:12;100823.88;;;15.33;24.69